Time;durP1;ratioP1;P1;durP2;ratioP2;P2;SDS_P1;SDS_P2;PMS_P1;PMS_P2;Temp;Humidity;BMP_temperature;BMP_pressure;BME280_temperature;BME280_humidity;BME280_pressure;Samples;Min_cycle;Max_cycle;Signal;HPM_P1;HPM_P2
2023/07/26 00:00:27;;;;;;;;;;;;;;;28.95;39.36;99703.16;5092244;28;1898;-22
2023/07/26 00:02:52;;;;;;;;;;;;;;;28.85;39.45;99714.47;5078424;28;892;-23
2023/07/26 00:05:18;;;;;;;;;;;;;;;29.01;39.28;99706.06;5093156;28;1018;-22
2023/07/26 00:07:43;;;;;;;;;;;;;;;28.99;39.38;99697.31;5090742;28;1073;-22
2023/07/26 00:10:09;;;;;;;;;;;;;;;28.92;39.18;99695.47;5092727;28;1237;-23
2023/07/26 00:12:34;;;;;;;;;;;;;;;28.98;38.92;99692.97;5091225;28;1085;-22
2023/07/26 00:15:00;;;;;;;;;;;;;;;28.93;39.12;99694.41;5078173;28;1496;-23
2023/07/26 00:17:25;;;;;;;;;;;;;;;29.04;38.68;99690.19;5091819;28;1034;-22
2023/07/26 00:19:51;;;;;;;;;;;;;;;28.92;39.10;99683.81;5078684;28;1902;-24
2023/07/26 00:22:16;;;;;;;;;;;;;;;28.89;38.97;99679.69;5098107;28;1058;-26
2023/07/26 00:24:42;;;;;;;;;;;;;;;28.84;38.82;99676.81;5098175;28;1019;-25
2023/07/26 00:27:07;;;;;;;;;;;;;;;28.90;38.84;99670.50;5084925;28;945;-21
2023/07/26 00:29:33;;;;;;;;;;;;;;;28.96;38.87;99676.91;5066171;28;1126;-23
2023/07/26 00:31:59;;;;;;;;;;;;;;;28.99;38.58;99675.66;5060344;28;1338;-21
2023/07/26 00:34:25;;;;;;;;;;;;;;;29.06;38.47;99677.25;5077567;28;1066;-23
2023/07/26 00:36:50;;;;;;;;;;;;;;;28.95;38.58;99675.25;5077767;28;1031;-23
2023/07/26 00:39:15;;;;;;;;;;;;;;;29.04;38.13;99668.53;5091243;28;1993;-25
2023/07/26 00:41:41;;;;;;;;;;;;;;;28.93;38.68;99667.34;5091325;28;1086;-25
2023/07/26 00:44:06;;;;;;;;;;;;;;;28.89;38.63;99658.03;5091147;28;1135;-26
2023/07/26 00:46:32;;;;;;;;;;;;;;;28.90;38.54;99653.41;5097564;28;1111;-22
2023/07/26 00:48:59;;;;;;;;;;;;;;;28.85;38.77;99660.34;5079877;28;1043;-22
2023/07/26 00:51:24;;;;;;;;;;;;;;;28.95;38.42;99664.41;5071861;28;895;-24
2023/07/26 00:53:49;;;;;;;;;;;;;;;28.95;38.76;99667.13;5066236;28;1178;-22
2023/07/26 00:56:16;;;;;;;;;;;;;;;28.82;38.65;99658.06;5066199;28;2171;-25
2023/07/26 00:58:44;;;;;;;;;;;;;;;28.90;38.46;99654.25;5079108;28;1252;-25
2023/07/26 01:01:09;;;;;;;;;;;;;;;28.88;38.26;99647.41;5066635;28;1906;-23
2023/07/26 01:03:35;;;;;;;;;;;;;;;28.86;38.70;99650.34;5082811;28;893;-22
2023/07/26 01:06:14;;;;;;;;;;;;;;;28.97;38.81;99646.09;5077282;28;1015;-23
2023/07/26 01:08:43;;;;;;;;;;;;;;;28.97;38.92;99632.56;5074408;28;1208;-23
2023/07/26 01:11:12;;;;;;;;;;;;;;;28.96;38.26;99623.59;5079378;28;1059;-25
2023/07/26 01:13:57;;;;;;;;;;;;;;;29.07;38.17;99630.19;5046811;28;1257;-24
2023/07/26 01:16:22;;;;;;;;;;;;;;;28.87;38.60;99632.22;5076846;28;1137;-23
2023/07/26 01:18:48;;;;;;;;;;;;;;;29.00;38.33;99644.81;5082211;28;1222;-22
2023/07/26 01:21:13;;;;;;;;;;;;;;;28.90;38.75;99638.00;5085559;28;1982;-23
2023/07/26 01:23:39;;;;;;;;;;;;;;;28.88;38.67;99629.28;5072509;28;1327;-23
2023/07/26 01:26:05;;;;;;;;;;;;;;;28.94;38.60;99633.00;5088690;28;1178;-23
2023/07/26 01:28:31;;;;;;;;;;;;;;;28.95;38.40;99626.50;5091784;28;1117;-26
2023/07/26 01:30:57;;;;;;;;;;;;;;;28.95;38.44;99626.50;5076561;28;1129;-24
2023/07/26 01:33:22;;;;;;;;;;;;;;;28.93;38.59;99628.59;5081643;28;1070;-23
2023/07/26 01:35:48;;;;;;;;;;;;;;;28.82;38.64;99630.19;5078354;28;999;-21
2023/07/26 01:38:13;;;;;;;;;;;;;;;28.95;38.42;99629.22;5077842;28;1110;-22
2023/07/26 01:40:38;;;;;;;;;;;;;;;29.01;38.20;99630.25;5067617;28;1914;-25
2023/07/26 01:43:04;;;;;;;;;;;;;;;29.02;37.76;99627.31;5059254;28;1198;-22
2023/07/26 01:45:29;;;;;;;;;;;;;;;28.97;38.19;99621.75;5058019;28;1020;-20
2023/07/26 01:47:55;;;;;;;;;;;;;;;28.89;38.46;99622.00;5076868;28;995;-25
2023/07/26 01:50:22;;;;;;;;;;;;;;;28.88;38.29;99618.44;5067292;28;1185;-23
2023/07/26 01:52:47;;;;;;;;;;;;;;;28.95;38.53;99615.69;5076395;28;1010;-22
2023/07/26 01:55:13;;;;;;;;;;;;;;;29.02;37.86;99615.66;5087670;28;1003;-22
2023/07/26 01:57:39;;;;;;;;;;;;;;;29.05;37.73;99615.19;5060616;28;1186;-21
2023/07/26 02:00:05;;;;;;;;;;;;;;;28.98;38.33;99611.75;5082293;28;1902;-22
2023/07/26 02:02:38;;;;;;;;;;;;;;;28.99;37.72;99606.09;5076074;28;1141;-22
2023/07/26 02:05:04;;;;;;;;;;;;;;;28.93;38.12;99601.53;5088586;28;1074;-22
2023/07/26 02:07:29;;;;;;;;;;;;;;;28.98;38.00;99607.16;5072837;28;1199;-22
2023/07/26 02:09:55;;;;;;;;;;;;;;;28.83;38.29;99608.28;5070929;28;1131;-22
2023/07/26 02:12:20;;;;;;;;;;;;;;;28.88;38.17;99614.94;5082632;28;1105;-23
2023/07/26 02:14:46;;;;;;;;;;;;;;;28.89;38.05;99608.47;5095952;28;1126;-23
2023/07/26 02:17:11;;;;;;;;;;;;;;;28.85;38.13;99605.38;5078030;28;1117;-21
2023/07/26 02:19:37;;;;;;;;;;;;;;;28.91;37.63;99604.47;5058438;28;1906;-21
2023/07/26 02:22:02;;;;;;;;;;;;;;;28.97;38.12;99602.78;5081169;28;1150;-23
2023/07/26 02:24:28;;;;;;;;;;;;;;;28.82;38.06;99603.94;5074912;28;1232;-22
2023/07/26 02:26:53;;;;;;;;;;;;;;;28.87;37.92;99605.16;5075954;28;1004;-25
2023/07/26 02:29:19;;;;;;;;;;;;;;;28.92;37.61;99608.00;5058036;28;1135;-24
2023/07/26 02:31:44;;;;;;;;;;;;;;;28.93;37.75;99607.78;5076198;28;1210;-23
2023/07/26 02:34:10;;;;;;;;;;;;;;;28.87;37.99;99605.97;5066598;28;1134;-23
2023/07/26 02:36:39;;;;;;;;;;;;;;;28.79;38.12;99598.16;5062681;28;1265;-22
2023/07/26 02:39:04;;;;;;;;;;;;;;;28.85;37.80;99603.50;5084414;28;1990;-21
2023/07/26 02:41:30;;;;;;;;;;;;;;;28.73;37.63;99589.03;5075997;28;1114;-23
2023/07/26 02:43:55;;;;;;;;;;;;;;;28.82;37.88;99590.41;5076033;28;1091;-22
2023/07/26 02:46:21;;;;;;;;;;;;;;;28.80;37.55;99589.81;5094017;28;1182;-22
2023/07/26 02:48:46;;;;;;;;;;;;;;;28.78;37.65;99591.91;5095875;28;1026;-23
2023/07/26 02:51:12;;;;;;;;;;;;;;;28.79;37.72;99590.03;5090805;28;1141;-23
2023/07/26 02:53:38;;;;;;;;;;;;;;;28.86;37.65;99579.97;5075494;28;1078;-22
2023/07/26 02:56:03;;;;;;;;;;;;;;;28.83;37.54;99583.94;5071489;28;1268;-21
2023/07/26 02:58:29;;;;;;;;;;;;;;;28.74;37.66;99571.75;5091033;28;1139;-24
2023/07/26 03:00:55;;;;;;;;;;;;;;;28.88;37.45;99583.25;5099888;28;1909;-22
2023/07/26 03:03:20;;;;;;;;;;;;;;;28.82;37.23;99573.34;5088446;28;1142;-23
2023/07/26 03:05:47;;;;;;;;;;;;;;;28.91;37.17;99571.19;5079166;28;1058;-23
2023/07/26 03:08:13;;;;;;;;;;;;;;;28.87;37.39;99578.91;5070098;28;1217;-22
2023/07/26 03:10:39;;;;;;;;;;;;;;;28.92;37.19;99573.66;5079456;28;1110;-21
2023/07/26 03:13:04;;;;;;;;;;;;;;;28.90;37.33;99586.59;5079507;28;1054;-24
2023/07/26 03:15:30;;;;;;;;;;;;;;;28.85;37.87;99583.72;5099299;28;1002;-22
2023/07/26 03:17:55;;;;;;;;;;;;;;;28.70;37.51;99584.91;5099510;28;1006;-20
2023/07/26 03:20:21;;;;;;;;;;;;;;;28.72;37.09;99576.56;5072423;28;1964;-21
2023/07/26 03:22:46;;;;;;;;;;;;;;;28.65;38.11;99571.19;5061320;28;1135;-22
2023/07/26 03:25:12;;;;;;;;;;;;;;;28.56;37.74;99573.34;5079427;28;1028;-21
2023/07/26 03:27:37;;;;;;;;;;;;;;;28.60;38.21;99571.03;5092370;28;1162;-21
2023/07/26 03:30:03;;;;;;;;;;;;;;;28.68;39.97;99578.03;5092763;28;1038;-21
2023/07/26 03:32:29;;;;;;;;;;;;;;;28.67;38.61;99574.53;5092751;28;1039;-21
2023/07/26 03:34:55;;;;;;;;;;;;;;;28.49;39.63;99578.00;5085662;28;1186;-22
2023/07/26 03:37:20;;;;;;;;;;;;;;;28.54;39.47;99566.53;5067403;28;1150;-23
2023/07/26 03:39:46;;;;;;;;;;;;;;;28.61;38.97;99578.13;5062271;28;1965;-23
2023/07/26 03:42:11;;;;;;;;;;;;;;;28.82;38.91;99578.75;5072864;28;1339;-21
2023/07/26 03:44:37;;;;;;;;;;;;;;;28.89;38.93;99573.28;5077475;28;1190;-22
2023/07/26 03:47:02;;;;;;;;;;;;;;;28.78;38.56;99572.16;5090944;28;1154;-22
2023/07/26 03:49:29;;;;;;;;;;;;;;;28.77;39.30;99560.47;5098972;28;1144;-22
2023/07/26 03:51:56;;;;;;;;;;;;;;;28.91;38.55;99555.75;5093588;28;1130;-21
2023/07/26 03:54:22;;;;;;;;;;;;;;;28.69;36.46;99566.19;5098300;28;1118;-25
2023/07/26 03:56:47;;;;;;;;;;;;;;;28.62;34.57;99568.09;5098213;28;1062;-22
2023/07/26 03:59:13;;;;;;;;;;;;;;;28.54;33.65;99558.41;5098807;28;1981;-23
2023/07/26 04:01:39;;;;;;;;;;;;;;;28.27;33.19;99566.69;5080780;28;1307;-22
2023/07/26 04:04:05;;;;;;;;;;;;;;;28.13;33.03;99569.50;5085345;28;1182;-21
2023/07/26 04:06:30;;;;;;;;;;;;;;;28.27;33.10;99564.84;5098709;28;1090;-20
2023/07/26 04:08:55;;;;;;;;;;;;;;;28.55;34.99;99555.47;5097819;28;1121;-21
2023/07/26 04:11:21;;;;;;;;;;;;;;;28.71;35.34;99561.38;5098954;28;1049;-21
2023/07/26 04:13:46;;;;;;;;;;;;;;;28.69;36.01;99564.31;5094817;28;1148;-22
2023/07/26 04:16:15;;;;;;;;;;;;;;;28.53;36.36;99565.69;5088788;28;956;-22
2023/07/26 04:18:41;;;;;;;;;;;;;;;28.72;36.05;99560.31;5097752;28;1106;-21
2023/07/26 04:21:06;;;;;;;;;;;;;;;28.78;36.12;99564.84;5098277;28;1966;-23
2023/07/26 04:23:32;;;;;;;;;;;;;;;28.40;36.64;99558.53;5084956;28;1543;-20
2023/07/26 04:25:57;;;;;;;;;;;;;;;28.44;38.58;99559.75;5098256;28;1088;-20
2023/07/26 04:28:23;;;;;;;;;;;;;;;28.43;40.33;99560.78;5080188;28;1110;-21
2023/07/26 04:30:48;;;;;;;;;;;;;;;28.52;41.71;99566.75;5089210;28;1082;-19
2023/07/26 04:33:14;;;;;;;;;;;;;;;28.47;41.00;99559.31;5097956;28;1086;-21
2023/07/26 04:35:39;;;;;;;;;;;;;;;28.44;42.59;99557.03;5098035;28;1042;-21
2023/07/26 04:38:05;;;;;;;;;;;;;;;28.29;43.49;99562.75;5097524;28;1062;-21
2023/07/26 04:40:30;;;;;;;;;;;;;;;28.50;42.77;99552.59;5092189;28;1910;-20
2023/07/26 04:42:56;;;;;;;;;;;;;;;28.66;42.71;99551.19;5092276;28;1273;-21
2023/07/26 04:45:21;;;;;;;;;;;;;;;29.25;41.13;99558.13;5097608;28;1234;-21
2023/07/26 04:47:46;;;;;;;;;;;;;;;29.01;41.57;99554.44;5094333;28;1202;-20
2023/07/26 04:50:12;;;;;;;;;;;;;;;28.70;41.77;99554.28;5097821;28;1146;-20
2023/07/26 04:52:37;;;;;;;;;;;;;;;28.90;42.07;99548.69;5096944;28;1360;-21
2023/07/26 04:55:04;;;;;;;;;;;;;;;29.24;42.05;99552.94;5097775;28;1047;-21
2023/07/26 04:57:30;;;;;;;;;;;;;;;29.49;41.71;99550.13;5096800;28;1058;-21
2023/07/26 04:59:55;;;;;;;;;;;;;;;29.11;41.14;99548.50;5097278;28;1905;-20
2023/07/26 05:02:21;;;;;;;;;;;;;;;29.31;41.12;99551.78;5106798;28;1209;-21
2023/07/26 05:04:46;;;;;;;;;;;;;;;29.03;41.35;99549.63;5096410;28;1213;-20
2023/07/26 05:07:12;;;;;;;;;;;;;;;29.31;40.68;99568.03;5097442;28;1331;-20
2023/07/26 05:09:37;;;;;;;;;;;;;;;29.72;39.81;99553.19;5093075;28;1332;-20
2023/07/26 05:12:03;;;;;;;;;;;;;;;29.52;40.06;99551.53;5086302;28;1201;-20
2023/07/26 05:14:28;;;;;;;;;;;;;;;30.11;38.89;99556.38;5094977;28;1304;-21
2023/07/26 05:16:54;;;;;;;;;;;;;;;30.08;38.01;99548.69;5096963;28;1070;-21
2023/07/26 05:19:19;;;;;;;;;;;;;;;30.37;37.60;99556.19;5079161;28;1898;-19
2023/07/26 05:21:45;;;;;;;;;;;;;;;30.49;37.05;99556.22;5087203;28;1149;-20
2023/07/26 05:24:10;;;;;;;;;;;;;;;30.41;37.14;99547.34;5087768;28;1216;-19
2023/07/26 05:26:36;;;;;;;;;;;;;;;30.74;36.74;99545.13;5097449;28;1031;-20
2023/07/26 05:29:01;;;;;;;;;;;;;;;30.33;37.06;99541.47;5092669;28;987;-20
2023/07/26 05:31:27;;;;;;;;;;;;;;;30.41;36.66;99533.78;5097554;28;1229;-20
2023/07/26 05:33:52;;;;;;;;;;;;;;;30.62;36.14;99536.97;5089554;28;971;-19
2023/07/26 05:36:17;;;;;;;;;;;;;;;30.49;36.78;99534.50;5096436;28;1196;-21
2023/07/26 05:38:43;;;;;;;;;;;;;;;30.65;36.27;99536.50;5095996;28;1137;-16
2023/07/26 05:41:08;;;;;;;;;;;;;;;30.30;37.09;99537.31;5086331;28;1973;-16
2023/07/26 05:43:34;;;;;;;;;;;;;;;30.57;36.20;99536.88;5080761;28;1038;-16
2023/07/26 05:46:00;;;;;;;;;;;;;;;30.55;36.17;99531.66;5088697;28;1214;-17
2023/07/26 05:48:25;;;;;;;;;;;;;;;30.95;35.82;99523.88;5084768;28;1209;-16
2023/07/26 05:50:51;;;;;;;;;;;;;;;30.75;36.13;99526.94;5095488;28;1231;-17
2023/07/26 05:53:16;;;;;;;;;;;;;;;30.45;36.38;99511.63;5095480;28;885;-17
2023/07/26 05:55:42;;;;;;;;;;;;;;;30.06;38.47;99523.72;5082913;28;1101;-16
2023/07/26 05:58:07;;;;;;;;;;;;;;;29.97;38.41;99525.09;5077484;28;1158;-17
2023/07/26 06:00:33;;;;;;;;;;;;;;;29.92;37.98;99515.78;5076009;28;1909;-16
2023/07/26 06:02:58;;;;;;;;;;;;;;;29.64;38.30;99517.22;5083621;28;1109;-24
2023/07/26 06:05:24;;;;;;;;;;;;;;;29.68;37.93;99513.00;5084031;28;1194;-16
2023/07/26 06:07:50;;;;;;;;;;;;;;;29.80;36.79;99510.31;5077432;28;1179;-16
2023/07/26 06:10:16;;;;;;;;;;;;;;;29.45;35.63;99511.00;5086793;28;1210;-16
2023/07/26 06:12:41;;;;;;;;;;;;;;;29.36;34.05;99506.97;5088177;28;994;-16
2023/07/26 06:15:07;;;;;;;;;;;;;;;28.93;33.33;99510.34;5089615;28;960;-16
2023/07/26 06:17:33;;;;;;;;;;;;;;;28.75;33.36;99502.19;5076303;28;853;-16
2023/07/26 06:19:58;;;;;;;;;;;;;;;28.87;33.41;99503.13;5078782;28;1914;-16
2023/07/26 06:22:24;;;;;;;;;;;;;;;29.08;33.09;99512.69;5076466;28;1118;-16
2023/07/26 06:24:49;;;;;;;;;;;;;;;28.88;32.72;99502.06;5076004;28;1066;-16
2023/07/26 06:27:27;;;;;;;;;;;;;;;28.81;33.50;99504.03;5091011;28;1336;-16
2023/07/26 06:29:52;;;;;;;;;;;;;;;28.89;32.77;99506.44;5092136;28;988;-16
2023/07/26 06:32:18;;;;;;;;;;;;;;;28.81;32.43;99504.03;5088944;28;967;-21
2023/07/26 06:34:43;;;;;;;;;;;;;;;28.79;32.69;99509.66;5081224;28;1168;-21
2023/07/26 06:37:09;;;;;;;;;;;;;;;28.51;32.69;99510.97;5075643;28;1122;-25
2023/07/26 06:39:34;;;;;;;;;;;;;;;28.83;33.76;99510.03;5090887;28;1979;-25
2023/07/26 06:42:00;;;;;;;;;;;;;;;28.64;33.61;99514.59;5087181;28;1352;-20
2023/07/26 06:44:25;;;;;;;;;;;;;;;26.12;40.47;99506.75;5085211;28;1356;-20
2023/07/26 06:46:51;;;;;;;;;;;;;;;23.83;43.06;99509.78;5095294;28;1075;-21
2023/07/26 06:49:17;;;;;;;;;;;;;;;23.40;46.07;99499.81;5084163;28;1547;-21
2023/07/26 06:51:42;;;;;;;;;;;;;;;23.13;46.97;99511.03;5095599;28;1217;-20
2023/07/26 06:54:07;;;;;;;;;;;;;;;22.78;48.62;99497.34;5092253;28;1042;-21
2023/07/26 06:56:33;;;;;;;;;;;;;;;23.79;48.84;99500.47;5084356;28;1122;-21
2023/07/26 06:58:58;;;;;;;;;;;;;;;26.55;42.03;99501.97;5085096;28;1154;-20
2023/07/26 07:01:24;;;;;;;;;;;;;;;25.04;47.99;99509.09;5073889;28;1914;-21
2023/07/26 07:03:50;;;;;;;;;;;;;;;26.98;41.54;99502.47;5094649;28;1011;-21
2023/07/26 07:06:16;;;;;;;;;;;;;;;24.41;48.78;99516.94;5081602;28;907;-21
2023/07/26 07:08:41;;;;;;;;;;;;;;;25.76;43.54;99514.13;5093578;28;1142;-20
2023/07/26 07:11:06;;;;;;;;;;;;;;;25.52;46.30;99510.94;5066802;28;1124;-20
2023/07/26 07:13:36;;;;;;;;;;;;;;;24.10;50.04;99496.59;5082522;28;1110;-22
2023/07/26 07:16:04;;;;;;;;;;;;;;;24.73;51.13;99489.66;5074055;28;1359;-21
2023/07/26 07:18:30;;;;;;;;;;;;;;;27.55;41.87;99493.75;5078954;28;1108;-21
2023/07/26 07:20:57;;;;;;;;;;;;;;;24.37;50.02;99493.34;5089278;28;1906;-20
2023/07/26 07:23:23;;;;;;;;;;;;;;;24.88;51.52;99496.75;5086111;28;1195;-20
2023/07/26 07:25:48;;;;;;;;;;;;;;;27.42;41.92;99491.97;5095698;28;1062;-21
2023/07/26 07:28:14;;;;;;;;;;;;;;;23.90;49.77;99491.88;5090433;28;1089;-21
2023/07/26 07:30:40;;;;;;;;;;;;;;;25.32;46.28;99494.72;5075305;28;891;-20
2023/07/26 07:33:05;;;;;;;;;;;;;;;26.38;44.76;99496.16;5075101;28;1078;-20
2023/07/26 07:35:30;;;;;;;;;;;;;;;23.54;50.33;99487.38;5087719;28;1143;-21
2023/07/26 07:37:56;;;;;;;;;;;;;;;26.05;44.19;99481.63;5081971;28;1162;-22
2023/07/26 07:40:21;;;;;;;;;;;;;;;24.92;46.82;99484.63;5094744;28;1902;-21
2023/07/26 07:42:47;;;;;;;;;;;;;;;24.45;51.32;99490.50;5082029;28;929;-21
2023/07/26 07:45:12;;;;;;;;;;;;;;;27.18;39.40;99488.94;5086103;28;1373;-22
2023/07/26 07:47:38;;;;;;;;;;;;;;;23.98;50.09;99480.16;5078855;28;1082;-21
2023/07/26 07:50:04;;;;;;;;;;;;;;;26.58;38.07;99481.81;5092240;28;1214;-20
2023/07/26 07:52:29;;;;;;;;;;;;;;;24.34;45.75;99479.25;5098318;28;1023;-26
2023/07/26 07:54:55;;;;;;;;;;;;;;;26.04;37.59;99475.41;5097573;28;877;-23
2023/07/26 07:57:21;;;;;;;;;;;;;;;25.03;43.69;99477.81;5091937;28;1114;-23
2023/07/26 07:59:46;;;;;;;;;;;;;;;24.75;46.82;99476.00;5091636;28;1909;-21
2023/07/26 08:02:12;;;;;;;;;;;;;;;27.22;40.19;99465.06;5091941;28;1064;-21
2023/07/26 08:04:38;;;;;;;;;;;;;;;23.73;46.90;99449.19;5091910;28;1142;-21
2023/07/26 08:07:04;;;;;;;;;;;;;;;26.05;40.14;99449.31;5093002;28;980;-21
2023/07/26 08:09:29;;;;;;;;;;;;;;;24.85;43.63;99448.75;5098713;28;1351;-21
2023/07/26 08:11:55;;;;;;;;;;;;;;;24.75;44.90;99444.56;5098396;28;1419;-21
2023/07/26 08:14:20;;;;;;;;;;;;;;;27.12;38.30;99452.03;5098942;28;1261;-21
2023/07/26 08:16:46;;;;;;;;;;;;;;;23.71;45.43;99445.00;5098149;28;1300;-21
2023/07/26 08:19:11;;;;;;;;;;;;;;;25.98;38.95;99441.22;5091360;28;1063;-21
2023/07/26 08:21:36;;;;;;;;;;;;;;;24.64;42.49;99434.38;5098295;28;1906;-21
2023/07/26 08:24:02;;;;;;;;;;;;;;;24.42;42.07;99429.06;5097976;28;1379;-23
2023/07/26 08:26:28;;;;;;;;;;;;;;;26.87;37.94;99420.34;5085002;28;1440;-22
2023/07/26 08:28:53;;;;;;;;;;;;;;;22.72;44.40;99304.03;5085581;28;1286;-24
2023/07/26 08:31:18;;;;;;;;;;;;;;;25.83;37.51;99427.09;5090818;28;1171;-27
2023/07/26 08:33:44;;;;;;;;;;;;;;;24.72;41.13;99425.31;5089413;28;1178;-21
2023/07/26 08:36:09;;;;;;;;;;;;;;;24.37;43.23;99420.78;5086860;28;1308;-22
2023/07/26 08:38:35;;;;;;;;;;;;;;;26.86;36.70;99408.72;5088013;28;1167;-23
2023/07/26 08:41:00;;;;;;;;;;;;;;;23.53;45.18;99397.97;5083231;28;1905;-21
2023/07/26 08:43:27;;;;;;;;;;;;;;;26.09;36.92;99393.13;5089774;28;981;-22
2023/07/26 08:45:53;;;;;;;;;;;;;;;24.22;41.96;99392.16;5072355;28;1233;-25
2023/07/26 08:48:18;;;;;;;;;;;;;;;25.11;38.38;99385.38;5095405;28;1202;-23
2023/07/26 08:50:44;;;;;;;;;;;;;;;26.05;37.42;99376.53;5079927;28;1333;-23
2023/07/26 08:53:09;;;;;;;;;;;;;;;23.65;43.17;99379.50;5097995;28;1332;-23
2023/07/26 08:55:35;;;;;;;;;;;;;;;25.92;36.85;99383.59;5090501;28;1462;-21
2023/07/26 08:58:01;;;;;;;;;;;;;;;24.60;40.41;99390.09;5088466;28;1274;-22
2023/07/26 09:00:27;;;;;;;;;;;;;;;24.75;39.58;99395.31;5085616;28;1968;-22
2023/07/26 09:02:54;;;;;;;;;;;;;;;26.96;34.88;99391.25;5087119;28;1131;-22
2023/07/26 09:05:20;;;;;;;;;;;;;;;23.61;42.96;99380.91;5058905;28;1278;-23
2023/07/26 09:07:45;;;;;;;;;;;;;;;25.65;38.95;99375.53;5079541;28;1068;-22
2023/07/26 09:10:11;;;;;;;;;;;;;;;24.91;40.44;99384.25;5076446;28;1122;-24
2023/07/26 09:12:36;;;;;;;;;;;;;;;24.22;43.66;99376.03;5083381;28;1139;-21
2023/07/26 09:15:05;;;;;;;;;;;;;;;26.68;37.60;99377.03;5096890;28;1114;-21
2023/07/26 09:17:38;;;;;;;;;;;;;;;23.87;44.41;99382.16;5096924;28;1113;-22
2023/07/26 09:20:03;;;;;;;;;;;;;;;25.70;40.33;99392.91;5083851;28;1910;-22
2023/07/26 09:22:30;;;;;;;;;;;;;;;25.27;41.44;99389.53;5097423;28;1035;-22
2023/07/26 09:24:55;;;;;;;;;;;;;;;24.28;45.58;99383.31;5097151;28;1034;-22
2023/07/26 09:27:21;;;;;;;;;;;;;;;26.71;38.71;99384.69;5097351;28;1054;-22
2023/07/26 09:29:56;;;;;;;;;;;;;;;24.02;45.99;99383.91;5096515;28;1090;-22
2023/07/26 09:32:28;;;;;;;;;;;;;;;25.54;42.79;99381.50;5086669;28;1170;-22
2023/07/26 09:34:55;;;;;;;;;;;;;;;25.60;42.50;99375.28;5088580;28;1161;-23
2023/07/26 09:37:21;;;;;;;;;;;;;;;23.40;50.07;99376.38;5089468;28;1375;-23
2023/07/26 09:39:46;;;;;;;;;;;;;;;26.01;42.98;99367.22;5096698;28;1972;-22
2023/07/26 09:42:12;;;;;;;;;;;;;;;24.45;45.94;99367.69;5094154;28;1137;-22
2023/07/26 09:44:37;;;;;;;;;;;;;;;24.49;47.86;99356.53;5086085;28;1186;-21
2023/07/26 09:47:03;;;;;;;;;;;;;;;26.84;41.36;99358.72;5091614;28;1244;-23
2023/07/26 09:49:29;;;;;;;;;;;;;;;23.90;48.01;99343.34;5094784;28;1438;-22
2023/07/26 09:51:58;;;;;;;;;;;;;;;25.41;45.14;99341.91;5090481;28;1622;-22
2023/07/26 09:54:27;;;;;;;;;;;;;;;25.55;43.95;99340.06;5087275;28;1242;-21
2023/07/26 09:56:53;;;;;;;;;;;;;;;23.30;49.95;99341.78;5087179;28;1239;-22
2023/07/26 09:59:19;;;;;;;;;;;;;;;25.45;45.47;99329.72;5088588;28;1898;-21
2023/07/26 10:01:45;;;;;;;;;;;;;;;25.39;45.06;99325.97;5068140;28;1061;-22
2023/07/26 10:04:17;;;;;;;;;;;;;;;23.26;50.57;99325.22;5085056;28;1238;-21
2023/07/26 10:06:42;;;;;;;;;;;;;;;25.79;45.04;99327.84;5067475;28;1242;-21
2023/07/26 10:09:16;;;;;;;;;;;;;;;25.07;46.50;99317.66;5090749;28;1218;-21
2023/07/26 10:11:42;;;;;;;;;;;;;;;23.26;51.38;99322.53;5093757;28;1284;-21
2023/07/26 10:14:09;;;;;;;;;;;;;;;26.19;45.03;99315.38;5089351;28;1255;-21
2023/07/26 10:16:35;;;;;;;;;;;;;;;24.88;46.00;99312.00;5083386;28;1202;-22
2023/07/26 10:19:00;;;;;;;;;;;;;;;23.05;50.13;99296.56;5072142;28;1165;-22
2023/07/26 10:21:26;;;;;;;;;;;;;;;25.28;46.48;99305.91;5096635;28;1972;-22
2023/07/26 10:23:52;;;;;;;;;;;;;;;25.42;45.95;99306.72;5089529;28;1371;-22
2023/07/26 10:26:17;;;;;;;;;;;;;;;23.48;52.51;99301.94;5064871;28;1337;-22
2023/07/26 10:28:43;;;;;;;;;;;;;;;26.43;43.94;99301.41;5072251;28;1313;-21
2023/07/26 10:31:08;;;;;;;;;;;;;;;24.74;46.09;99292.28;5068171;28;1340;-21
2023/07/26 10:33:42;;;;;;;;;;;;;;;23.91;53.83;99294.78;5093288;28;1182;-21
2023/07/26 10:36:08;;;;;;;;;;;;;;;27.04;42.91;99285.78;5096450;28;1277;-21
2023/07/26 10:38:37;;;;;;;;;;;;;;;24.23;48.01;99289.00;5077663;28;1433;-21
2023/07/26 10:41:19;;;;;;;;;;;;;;;24.50;50.84;99288.31;5095781;28;1902;-21
2023/07/26 10:43:45;;;;;;;;;;;;;;;27.11;43.35;99285.72;5090162;28;1091;-22
2023/07/26 10:46:11;;;;;;;;;;;;;;;23.62;48.66;99277.03;5077196;28;1265;-21
2023/07/26 10:48:39;;;;;;;;;;;;;;;25.07;47.96;99266.56;5095889;28;1316;-21
2023/07/26 10:51:23;;;;;;;;;;;;;;;26.49;44.08;99258.22;5096122;28;1371;-21
2023/07/26 10:53:49;;;;;;;;;;;;;;;23.69;50.02;99261.81;5095905;28;1343;-23
2023/07/26 10:56:18;;;;;;;;;;;;;;;25.60;47.00;99258.66;5088767;28;1063;-22
2023/07/26 10:58:50;;;;;;;;;;;;;;;25.76;45.25;99255.56;5082243;28;1547;-21
2023/07/26 11:01:30;;;;;;;;;;;;;;;23.49;50.83;99243.69;5087215;28;1980;-23
2023/07/26 11:03:59;;;;;;;;;;;;;;;25.80;46.60;99248.72;5073328;28;1217;-21
2023/07/26 11:06:43;;;;;;;;;;;;;;;25.33;46.92;99242.53;5095371;28;1303;-21
2023/07/26 11:09:17;;;;;;;;;;;;;;;23.56;54.47;99243.75;5088094;28;1166;-23
2023/07/26 11:11:55;;;;;;;;;;;;;;;26.68;44.35;99250.25;5086563;28;1194;-22
2023/07/26 11:14:21;;;;;;;;;;;;;;;23.85;48.61;99240.03;5085632;28;1480;-23
2023/07/26 11:16:47;;;;;;;;;;;;;;;24.60;51.17;99244.91;5066045;28;1296;-22
2023/07/26 11:19:12;;;;;;;;;;;;;;;26.94;43.48;99242.22;5095912;28;1222;-21
2023/07/26 11:21:38;;;;;;;;;;;;;;;23.62;50.89;99242.16;5088009;28;1942;-20
2023/07/26 11:24:04;;;;;;;;;;;;;;;24.39;51.53;99233.28;5065313;28;1155;-24
2023/07/26 11:26:29;;;;;;;;;;;;;;;27.06;43.84;99235.09;5087094;28;1238;-20
2023/07/26 11:28:58;;;;;;;;;;;;;;;23.78;50.68;99220.38;5061506;28;1122;-22
2023/07/26 11:31:23;;;;;;;;;;;;;;;25.63;46.54;99224.09;5078973;28;1130;-22
2023/07/26 11:33:49;;;;;;;;;;;;;;;25.65;45.90;99221.19;5088470;28;1194;-23
2023/07/26 11:36:18;;;;;;;;;;;;;;;23.58;52.66;99215.69;5085496;28;1049;-21
2023/07/26 11:38:44;;;;;;;;;;;;;;;26.31;45.25;99212.28;5089888;28;1201;-21
2023/07/26 11:41:09;;;;;;;;;;;;;;;24.55;48.59;99199.81;5094851;28;2010;-21
2023/07/26 11:43:37;;;;;;;;;;;;;;;24.37;51.69;99211.13;5091296;28;1110;-21
2023/07/26 11:46:02;;;;;;;;;;;;;;;26.93;42.91;99205.47;5097667;28;1189;-21
2023/07/26 11:48:30;;;;;;;;;;;;;;;23.94;49.81;99196.91;5098378;28;1015;-21
2023/07/26 11:50:55;;;;;;;;;;;;;;;25.38;47.62;99203.19;5098609;28;1066;-21
2023/07/26 11:53:26;;;;;;;;;;;;;;;26.15;44.81;99191.00;5098613;28;1201;-21
2023/07/26 11:55:52;;;;;;;;;;;;;;;23.91;52.63;99178.47;5085196;28;1201;-21
2023/07/26 11:58:18;;;;;;;;;;;;;;;26.70;44.52;99196.09;5085393;28;1103;-21
2023/07/26 12:00:43;;;;;;;;;;;;;;;24.62;48.22;99184.53;5090298;28;1909;-22
2023/07/26 12:03:09;;;;;;;;;;;;;;;23.25;54.14;99181.38;5088457;28;1113;-23
2023/07/26 12:05:34;;;;;;;;;;;;;;;26.48;45.30;99182.94;5090539;28;1308;-26
2023/07/26 12:08:03;;;;;;;;;;;;;;;24.68;49.58;99182.88;5088660;28;1230;-21
2023/07/26 12:10:29;;;;;;;;;;;;;;;25.39;50.00;99182.50;5081936;28;1257;-22
2023/07/26 12:12:55;;;;;;;;;;;;;;;27.35;44.40;99186.88;5085427;28;1131;-22
2023/07/26 12:15:20;;;;;;;;;;;;;;;23.87;50.23;99174.53;5087831;28;1058;-22
2023/07/26 12:18:02;;;;;;;;;;;;;;;26.52;45.69;99176.94;5077991;28;1051;-22
2023/07/26 12:20:27;;;;;;;;;;;;;;;24.88;47.99;99172.13;5045132;28;1910;-22
2023/07/26 12:22:54;;;;;;;;;;;;;;;23.65;55.67;99177.31;5055046;28;1099;-22
2023/07/26 12:25:20;;;;;;;;;;;;;;;26.94;44.38;99174.75;5057788;28;1166;-21
2023/07/26 12:27:49;;;;;;;;;;;;;;;24.46;49.47;99151.63;5051675;28;1114;-21
2023/07/26 12:30:18;;;;;;;;;;;;;;;23.69;54.59;99157.94;5047670;28;1090;-20
2023/07/26 12:32:44;;;;;;;;;;;;;;;26.64;44.87;99149.25;5056227;28;1170;-22
2023/07/26 12:35:20;;;;;;;;;;;;;;;24.43;48.02;99148.50;5045699;28;1254;-21
2023/07/26 12:37:45;;;;;;;;;;;;;;;26.13;46.73;99157.19;5049742;28;1210;-22
2023/07/26 12:40:11;;;;;;;;;;;;;;;26.04;45.82;99159.34;5045670;28;1976;-23
2023/07/26 12:42:36;;;;;;;;;;;;;;;26.97;44.12;99158.13;5039972;28;1111;-21
2023/07/26 12:45:03;;;;;;;;;;;;;;;28.18;40.16;99166.81;5056058;28;901;-20
2023/07/26 12:47:29;;;;;;;;;;;;;;;28.71;38.62;99152.78;5056406;28;1256;-22
2023/07/26 12:49:55;;;;;;;;;;;;;;;29.05;37.52;99158.50;5056244;28;1103;-21
2023/07/26 12:52:20;;;;;;;;;;;;;;;29.11;37.30;99145.91;5057248;28;1117;-21